sensor_id;sensor_type;location;lat;lon;timestamp;temperature;humidity
51878;SHT31;37911;51.526;11.536;2023-04-25T00:00:53;7.21;74.01
51878;SHT31;37911;51.526;11.536;2023-04-25T00:03:57;7.13;74.14
51878;SHT31;37911;51.526;11.536;2023-04-25T00:07:04;7.03;74.37
51878;SHT31;37911;51.526;11.536;2023-04-25T00:10:09;7.03;74.36
51878;SHT31;37911;51.526;11.536;2023-04-25T00:13:13;7.00;74.24
51878;SHT31;37911;51.526;11.536;2023-04-25T00:16:18;7.01;74.25
51878;SHT31;37911;51.526;11.536;2023-04-25T00:19:21;6.99;74.43
51878;SHT31;37911;51.526;11.536;2023-04-25T00:22:28;6.96;74.44
51878;SHT31;37911;51.526;11.536;2023-04-25T00:25:31;6.94;74.42
51878;SHT31;37911;51.526;11.536;2023-04-25T00:28:35;6.85;74.32
51878;SHT31;37911;51.526;11.536;2023-04-25T00:31:39;6.89;74.22
51878;SHT31;37911;51.526;11.536;2023-04-25T00:34:42;6.87;74.17
51878;SHT31;37911;51.526;11.536;2023-04-25T00:37:48;6.75;74.38
51878;SHT31;37911;51.526;11.536;2023-04-25T00:40:52;6.75;74.33
51878;SHT31;37911;51.526;11.536;2023-04-25T00:43:56;6.73;74.41
51878;SHT31;37911;51.526;11.536;2023-04-25T00:47:01;6.71;74.54
51878;SHT31;37911;51.526;11.536;2023-04-25T00:50:07;6.73;74.61
51878;SHT31;37911;51.526;11.536;2023-04-25T00:53:15;6.75;74.71
51878;SHT31;37911;51.526;11.536;2023-04-25T00:56:19;6.76;74.55
51878;SHT31;37911;51.526;11.536;2023-04-25T00:59:25;6.79;74.76
51878;SHT31;37911;51.526;11.536;2023-04-25T01:02:30;6.85;74.89
51878;SHT31;37911;51.526;11.536;2023-04-25T01:05:36;6.87;74.82
51878;SHT31;37911;51.526;11.536;2023-04-25T01:08:42;6.99;74.41
51878;SHT31;37911;51.526;11.536;2023-04-25T01:11:46;7.03;74.10
51878;SHT31;37911;51.526;11.536;2023-04-25T01:14:49;7.06;73.71
51878;SHT31;37911;51.526;11.536;2023-04-25T01:17:53;7.06;73.68
51878;SHT31;37911;51.526;11.536;2023-04-25T01:21:03;7.03;73.58
51878;SHT31;37911;51.526;11.536;2023-04-25T01:24:10;7.04;73.23
51878;SHT31;37911;51.526;11.536;2023-04-25T01:27:14;7.04;73.43
51878;SHT31;37911;51.526;11.536;2023-04-25T01:30:18;7.00;73.42
51878;SHT31;37911;51.526;11.536;2023-04-25T01:33:22;7.01;73.44
51878;SHT31;37911;51.526;11.536;2023-04-25T01:36:28;6.96;73.41
51878;SHT31;37911;51.526;11.536;2023-04-25T01:39:32;6.97;73.37
51878;SHT31;37911;51.526;11.536;2023-04-25T01:42:38;6.97;73.09
51878;SHT31;37911;51.526;11.536;2023-04-25T01:45:42;6.94;73.14
51878;SHT31;37911;51.526;11.536;2023-04-25T01:48:47;6.92;73.07
51878;SHT31;37911;51.526;11.536;2023-04-25T01:51:53;6.89;72.90
51878;SHT31;37911;51.526;11.536;2023-04-25T01:54:57;6.92;72.97
51878;SHT31;37911;51.526;11.536;2023-04-25T01:58:04;6.94;72.61
51878;SHT31;37911;51.526;11.536;2023-04-25T02:01:30;6.94;72.76
51878;SHT31;37911;51.526;11.536;2023-04-25T02:04:49;6.93;72.54
51878;SHT31;37911;51.526;11.536;2023-04-25T02:07:56;6.96;72.45
51878;SHT31;37911;51.526;11.536;2023-04-25T02:11:01;6.92;72.73
51878;SHT31;37911;51.526;11.536;2023-04-25T02:14:12;6.97;72.61
51878;SHT31;37911;51.526;11.536;2023-04-25T02:17:22;6.97;72.35
51878;SHT31;37911;51.526;11.536;2023-04-25T02:20:39;7.00;72.44
51878;SHT31;37911;51.526;11.536;2023-04-25T02:23:48;6.97;72.27
51878;SHT31;37911;51.526;11.536;2023-04-25T02:26:53;6.90;72.46
51878;SHT31;37911;51.526;11.536;2023-04-25T02:29:56;6.87;72.47
51878;SHT31;37911;51.526;11.536;2023-04-25T02:33:00;6.92;72.70
51878;SHT31;37911;51.526;11.536;2023-04-25T02:36:04;6.89;72.84
51878;SHT31;37911;51.526;11.536;2023-04-25T02:39:11;6.92;72.76
51878;SHT31;37911;51.526;11.536;2023-04-25T02:42:14;6.87;72.76
51878;SHT31;37911;51.526;11.536;2023-04-25T02:45:18;6.93;72.67
51878;SHT31;37911;51.526;11.536;2023-04-25T02:48:22;6.90;72.59
51878;SHT31;37911;51.526;11.536;2023-04-25T02:51:25;6.87;72.85
51878;SHT31;37911;51.526;11.536;2023-04-25T02:54:32;6.82;73.04
51878;SHT31;37911;51.526;11.536;2023-04-25T02:57:37;6.76;73.31
51878;SHT31;37911;51.526;11.536;2023-04-25T03:00:43;6.57;73.62
51878;SHT31;37911;51.526;11.536;2023-04-25T03:03:47;6.49;73.75
51878;SHT31;37911;51.526;11.536;2023-04-25T03:06:51;6.50;73.73
51878;SHT31;37911;51.526;11.536;2023-04-25T03:09:58;6.57;73.43
51878;SHT31;37911;51.526;11.536;2023-04-25T03:13:04;6.49;73.67
51878;SHT31;37911;51.526;11.536;2023-04-25T03:16:08;6.53;73.40
51878;SHT31;37911;51.526;11.536;2023-04-25T03:19:12;6.49;73.45
51878;SHT31;37911;51.526;11.536;2023-04-25T03:22:16;6.41;73.62
51878;SHT31;37911;51.526;11.536;2023-04-25T03:25:22;6.41;73.83
51878;SHT31;37911;51.526;11.536;2023-04-25T03:28:26;6.36;73.78
51878;SHT31;37911;51.526;11.536;2023-04-25T03:31:31;6.38;73.88
51878;SHT31;37911;51.526;11.536;2023-04-25T03:34:35;6.36;73.89
51878;SHT31;37911;51.526;11.536;2023-04-25T03:37:39;6.35;73.90
51878;SHT31;37911;51.526;11.536;2023-04-25T03:40:49;6.33;73.95
51878;SHT31;37911;51.526;11.536;2023-04-25T03:43:57;6.35;74.15
51878;SHT31;37911;51.526;11.536;2023-04-25T03:47:04;6.35;74.11
51878;SHT31;37911;51.526;11.536;2023-04-25T03:50:09;6.31;74.33
51878;SHT31;37911;51.526;11.536;2023-04-25T03:53:13;6.35;74.21
51878;SHT31;37911;51.526;11.536;2023-04-25T03:56:38;6.36;74.18
51878;SHT31;37911;51.526;11.536;2023-04-25T03:59:51;6.36;74.35
51878;SHT31;37911;51.526;11.536;2023-04-25T04:02:57;6.31;74.39
51878;SHT31;37911;51.526;11.536;2023-04-25T04:06:01;6.26;74.57
51878;SHT31;37911;51.526;11.536;2023-04-25T04:09:06;6.29;74.68
51878;SHT31;37911;51.526;11.536;2023-04-25T04:12:15;6.22;74.83
51878;SHT31;37911;51.526;11.536;2023-04-25T04:15:19;6.24;74.75
51878;SHT31;37911;51.526;11.536;2023-04-25T04:18:23;6.22;74.88
51878;SHT31;37911;51.526;11.536;2023-04-25T04:21:28;6.22;74.89
51878;SHT31;37911;51.526;11.536;2023-04-25T04:24:32;6.26;74.97
51878;SHT31;37911;51.526;11.536;2023-04-25T04:27:42;6.32;74.82
51878;SHT31;37911;51.526;11.536;2023-04-25T04:31:02;6.32;74.71
51878;SHT31;37911;51.526;11.536;2023-04-25T04:34:05;6.32;75.09
51878;SHT31;37911;51.526;11.536;2023-04-25T04:37:10;6.41;74.97
51878;SHT31;37911;51.526;11.536;2023-04-25T04:40:15;6.50;74.74
51878;SHT31;37911;51.526;11.536;2023-04-25T04:43:29;6.52;74.65
51878;SHT31;37911;51.526;11.536;2023-04-25T04:46:42;6.42;74.85
51878;SHT31;37911;51.526;11.536;2023-04-25T04:50:13;6.55;74.64
51878;SHT31;37911;51.526;11.536;2023-04-25T04:53:35;6.61;74.48
51878;SHT31;37911;51.526;11.536;2023-04-25T04:57:02;6.69;74.27
51878;SHT31;37911;51.526;11.536;2023-04-25T05:00:38;6.76;74.19
51878;SHT31;37911;51.526;11.536;2023-04-25T05:04:05;6.82;74.41
51878;SHT31;37911;51.526;11.536;2023-04-25T05:07:21;6.93;74.12
51878;SHT31;37911;51.526;11.536;2023-04-25T05:10:48;6.96;73.87
51878;SHT31;37911;51.526;11.536;2023-04-25T05:14:08;7.03;73.84
51878;SHT31;37911;51.526;11.536;2023-04-25T05:17:24;7.14;73.81
51878;SHT31;37911;51.526;11.536;2023-04-25T05:20:34;7.21;73.77
51878;SHT31;37911;51.526;11.536;2023-04-25T05:23:49;7.35;73.67
51878;SHT31;37911;51.526;11.536;2023-04-25T05:27:08;7.61;72.67
51878;SHT31;37911;51.526;11.536;2023-04-25T05:30:38;7.86;72.76
51878;SHT31;37911;51.526;11.536;2023-04-25T05:34:13;8.09;71.63
51878;SHT31;37911;51.526;11.536;2023-04-25T05:37:26;8.21;71.33
51878;SHT31;37911;51.526;11.536;2023-04-25T05:40:38;8.12;70.98
51878;SHT31;37911;51.526;11.536;2023-04-25T05:44:06;8.13;71.14
51878;SHT31;37911;51.526;11.536;2023-04-25T05:47:19;8.10;71.61
51878;SHT31;37911;51.526;11.536;2023-04-25T05:50:45;8.22;71.37
51878;SHT31;37911;51.526;11.536;2023-04-25T05:54:07;8.47;70.84
51878;SHT31;37911;51.526;11.536;2023-04-25T05:57:19;8.49;70.57
51878;SHT31;37911;51.526;11.536;2023-04-25T06:00:23;8.56;71.16
51878;SHT31;37911;51.526;11.536;2023-04-25T06:03:27;8.66;70.91
51878;SHT31;37911;51.526;11.536;2023-04-25T06:06:35;8.54;70.73
51878;SHT31;37911;51.526;11.536;2023-04-25T06:09:39;8.50;71.01
51878;SHT31;37911;51.526;11.536;2023-04-25T06:12:43;8.54;70.95
51878;SHT31;37911;51.526;11.536;2023-04-25T06:15:49;8.40;71.60
51878;SHT31;37911;51.526;11.536;2023-04-25T06:18:53;8.49;70.78
51878;SHT31;37911;51.526;11.536;2023-04-25T06:21:59;8.49;70.46
51878;SHT31;37911;51.526;11.536;2023-04-25T06:25:06;8.54;70.53
51878;SHT31;37911;51.526;11.536;2023-04-25T06:28:10;8.50;70.48
51878;SHT31;37911;51.526;11.536;2023-04-25T06:31:15;8.50;70.74
51878;SHT31;37911;51.526;11.536;2023-04-25T06:34:20;8.46;71.00
51878;SHT31;37911;51.526;11.536;2023-04-25T06:37:27;8.42;70.90
51878;SHT31;37911;51.526;11.536;2023-04-25T06:40:31;8.43;71.02
51878;SHT31;37911;51.526;11.536;2023-04-25T06:43:35;8.32;70.75
51878;SHT31;37911;51.526;11.536;2023-04-25T06:46:51;8.25;70.97
51878;SHT31;37911;51.526;11.536;2023-04-25T06:49:54;8.19;71.87
51878;SHT31;37911;51.526;11.536;2023-04-25T06:53:01;8.28;71.72
51878;SHT31;37911;51.526;11.536;2023-04-25T06:56:06;8.36;71.38
51878;SHT31;37911;51.526;11.536;2023-04-25T06:59:26;8.64;71.27
51878;SHT31;37911;51.526;11.536;2023-04-25T07:02:30;9.01;69.47
51878;SHT31;37911;51.526;11.536;2023-04-25T07:05:37;9.46;68.50
51878;SHT31;37911;51.526;11.536;2023-04-25T07:08:43;9.72;67.07
51878;SHT31;37911;51.526;11.536;2023-04-25T07:11:47;10.04;66.04
51878;SHT31;37911;51.526;11.536;2023-04-25T07:14:51;9.97;62.63
51878;SHT31;37911;51.526;11.536;2023-04-25T07:17:55;9.94;59.96
51878;SHT31;37911;51.526;11.536;2023-04-25T07:20:58;9.83;59.56
51878;SHT31;37911;51.526;11.536;2023-04-25T07:24:06;9.92;59.24
51878;SHT31;37911;51.526;11.536;2023-04-25T07:27:14;9.93;59.68
51878;SHT31;37911;51.526;11.536;2023-04-25T07:30:29;10.04;60.13
51878;SHT31;37911;51.526;11.536;2023-04-25T07:33:38;10.21;60.78
51878;SHT31;37911;51.526;11.536;2023-04-25T07:36:41;10.29;59.57
51878;SHT31;37911;51.526;11.536;2023-04-25T07:39:48;10.27;58.40
51878;SHT31;37911;51.526;11.536;2023-04-25T07:42:52;10.41;58.96
51878;SHT31;37911;51.526;11.536;2023-04-25T07:46:02;10.51;57.97
51878;SHT31;37911;51.526;11.536;2023-04-25T07:49:08;10.41;58.77
51878;SHT31;37911;51.526;11.536;2023-04-25T07:52:13;10.34;57.70
51878;SHT31;37911;51.526;11.536;2023-04-25T07:55:26;10.33;57.06
51878;SHT31;37911;51.526;11.536;2023-04-25T07:58:46;10.17;58.19
51878;SHT31;37911;51.526;11.536;2023-04-25T08:01:52;10.23;58.50
51878;SHT31;37911;51.526;11.536;2023-04-25T08:04:57;10.13;58.90
51878;SHT31;37911;51.526;11.536;2023-04-25T08:08:02;10.14;59.61
51878;SHT31;37911;51.526;11.536;2023-04-25T08:11:10;10.14;59.95
51878;SHT31;37911;51.526;11.536;2023-04-25T08:14:14;10.09;59.86
51878;SHT31;37911;51.526;11.536;2023-04-25T08:17:19;10.06;60.79
51878;SHT31;37911;51.526;11.536;2023-04-25T08:20:24;10.38;60.14
51878;SHT31;37911;51.526;11.536;2023-04-25T08:23:30;10.58;59.51
51878;SHT31;37911;51.526;11.536;2023-04-25T08:26:41;11.81;58.96
51878;SHT31;37911;51.526;11.536;2023-04-25T08:29:49;11.87;56.10
51878;SHT31;37911;51.526;11.536;2023-04-25T08:32:54;11.69;55.30
51878;SHT31;37911;51.526;11.536;2023-04-25T08:36:19;11.58;55.95
51878;SHT31;37911;51.526;11.536;2023-04-25T08:39:23;11.38;55.95
51878;SHT31;37911;51.526;11.536;2023-04-25T08:42:49;11.32;55.95
51878;SHT31;37911;51.526;11.536;2023-04-25T08:45:55;11.04;55.72
51878;SHT31;37911;51.526;11.536;2023-04-25T08:49:27;10.98;56.58
51878;SHT31;37911;51.526;11.536;2023-04-25T08:52:36;11.04;57.15
51878;SHT31;37911;51.526;11.536;2023-04-25T08:55:41;10.97;57.03
51878;SHT31;37911;51.526;11.536;2023-04-25T08:58:48;10.97;57.72
51878;SHT31;37911;51.526;11.536;2023-04-25T09:01:53;10.85;56.96
51878;SHT31;37911;51.526;11.536;2023-04-25T09:04:57;10.72;57.24
51878;SHT31;37911;51.526;11.536;2023-04-25T09:08:00;10.68;55.84
51878;SHT31;37911;51.526;11.536;2023-04-25T09:11:04;10.54;56.91
51878;SHT31;37911;51.526;11.536;2023-04-25T09:14:16;10.64;56.10
51878;SHT31;37911;51.526;11.536;2023-04-25T09:17:55;10.65;57.09
51878;SHT31;37911;51.526;11.536;2023-04-25T09:21:06;10.74;56.28
51878;SHT31;37911;51.526;11.536;2023-04-25T09:24:10;10.74;56.25
51878;SHT31;37911;51.526;11.536;2023-04-25T09:27:18;10.72;55.50
51878;SHT31;37911;51.526;11.536;2023-04-25T09:30:33;10.53;55.67
51878;SHT31;37911;51.526;11.536;2023-04-25T09:34:03;10.57;57.43
51878;SHT31;37911;51.526;11.536;2023-04-25T09:37:18;10.68;55.15
51878;SHT31;37911;51.526;11.536;2023-04-25T09:40:42;10.72;55.71
51878;SHT31;37911;51.526;11.536;2023-04-25T09:43:56;10.79;56.44
51878;SHT31;37911;51.526;11.536;2023-04-25T09:47:09;10.85;56.18
51878;SHT31;37911;51.526;11.536;2023-04-25T09:50:14;10.65;55.12
51878;SHT31;37911;51.526;11.536;2023-04-25T09:53:23;10.64;54.92
51878;SHT31;37911;51.526;11.536;2023-04-25T09:56:38;10.71;56.28
51878;SHT31;37911;51.526;11.536;2023-04-25T09:59:44;10.71;55.13
51878;SHT31;37911;51.526;11.536;2023-04-25T10:02:51;10.91;54.78
51878;SHT31;37911;51.526;11.536;2023-04-25T10:06:22;10.95;53.57
51878;SHT31;37911;51.526;11.536;2023-04-25T10:09:29;10.89;52.96
51878;SHT31;37911;51.526;11.536;2023-04-25T10:12:34;10.92;53.79
51878;SHT31;37911;51.526;11.536;2023-04-25T10:15:38;10.88;52.48
51878;SHT31;37911;51.526;11.536;2023-04-25T10:18:44;10.95;53.23
51878;SHT31;37911;51.526;11.536;2023-04-25T10:21:51;10.99;53.51
51878;SHT31;37911;51.526;11.536;2023-04-25T10:24:55;11.12;52.42
51878;SHT31;37911;51.526;11.536;2023-04-25T10:28:00;11.22;50.60
51878;SHT31;37911;51.526;11.536;2023-04-25T10:31:08;11.53;51.64
51878;SHT31;37911;51.526;11.536;2023-04-25T10:34:15;11.98;51.68
51878;SHT31;37911;51.526;11.536;2023-04-25T10:37:19;12.42;49.57
51878;SHT31;37911;51.526;11.536;2023-04-25T10:40:22;12.84;47.86
51878;SHT31;37911;51.526;11.536;2023-04-25T10:43:37;12.84;47.49
51878;SHT31;37911;51.526;11.536;2023-04-25T10:46:41;12.71;45.70
51878;SHT31;37911;51.526;11.536;2023-04-25T10:49:50;12.23;44.05
51878;SHT31;37911;51.526;11.536;2023-04-25T10:52:54;11.97;45.18
51878;SHT31;37911;51.526;11.536;2023-04-25T10:55:58;12.20;44.55
51878;SHT31;37911;51.526;11.536;2023-04-25T10:59:08;12.48;42.44
51878;SHT31;37911;51.526;11.536;2023-04-25T11:02:12;12.68;43.88
51878;SHT31;37911;51.526;11.536;2023-04-25T11:05:23;13.00;42.77
51878;SHT31;37911;51.526;11.536;2023-04-25T11:08:47;13.12;43.47
51878;SHT31;37911;51.526;11.536;2023-04-25T11:11:53;13.32;43.46
51878;SHT31;37911;51.526;11.536;2023-04-25T11:15:01;13.35;43.02
51878;SHT31;37911;51.526;11.536;2023-04-25T11:18:05;13.09;43.65
51878;SHT31;37911;51.526;11.536;2023-04-25T11:21:13;12.79;44.30
51878;SHT31;37911;51.526;11.536;2023-04-25T11:24:17;12.46;47.30
51878;SHT31;37911;51.526;11.536;2023-04-25T11:27:21;12.23;44.51
51878;SHT31;37911;51.526;11.536;2023-04-25T11:30:26;12.13;44.19
51878;SHT31;37911;51.526;11.536;2023-04-25T11:33:32;11.98;44.89
51878;SHT31;37911;51.526;11.536;2023-04-25T11:36:38;12.16;44.74
51878;SHT31;37911;51.526;11.536;2023-04-25T11:39:45;12.23;42.99
51878;SHT31;37911;51.526;11.536;2023-04-25T11:42:49;12.21;44.22
51878;SHT31;37911;51.526;11.536;2023-04-25T11:45:53;12.21;44.88
51878;SHT31;37911;51.526;11.536;2023-04-25T11:48:57;12.04;45.41
51878;SHT31;37911;51.526;11.536;2023-04-25T11:52:06;11.83;47.94
51878;SHT31;37911;51.526;11.536;2023-04-25T11:55:13;11.90;47.44
51878;SHT31;37911;51.526;11.536;2023-04-25T11:58:17;11.93;48.47
51878;SHT31;37911;51.526;11.536;2023-04-25T12:01:26;11.87;46.08
51878;SHT31;37911;51.526;11.536;2023-04-25T12:04:31;12.01;47.51
51878;SHT31;37911;51.526;11.536;2023-04-25T12:07:38;12.17;44.61
51878;SHT31;37911;51.526;11.536;2023-04-25T12:10:43;12.25;44.25
51878;SHT31;37911;51.526;11.536;2023-04-25T12:13:51;12.44;44.09
51878;SHT31;37911;51.526;11.536;2023-04-25T12:16:56;12.51;43.11
51878;SHT31;37911;51.526;11.536;2023-04-25T12:20:06;12.95;42.57
51878;SHT31;37911;51.526;11.536;2023-04-25T12:23:13;13.12;40.68
51878;SHT31;37911;51.526;11.536;2023-04-25T12:26:18;13.03;40.07
51878;SHT31;37911;51.526;11.536;2023-04-25T12:29:23;13.08;40.18
51878;SHT31;37911;51.526;11.536;2023-04-25T12:32:27;12.85;39.57
51878;SHT31;37911;51.526;11.536;2023-04-25T12:35:32;12.65;38.93
51878;SHT31;37911;51.526;11.536;2023-04-25T12:38:38;12.75;40.39
51878;SHT31;37911;51.526;11.536;2023-04-25T12:41:44;12.85;39.26
51878;SHT31;37911;51.526;11.536;2023-04-25T12:44:48;12.72;38.11
51878;SHT31;37911;51.526;11.536;2023-04-25T12:47:52;12.74;41.87
51878;SHT31;37911;51.526;11.536;2023-04-25T12:50:56;12.61;37.33
51878;SHT31;37911;51.526;11.536;2023-04-25T12:54:03;12.51;37.00
51878;SHT31;37911;51.526;11.536;2023-04-25T12:57:07;12.58;38.68
51878;SHT31;37911;51.526;11.536;2023-04-25T13:00:13;12.78;38.75
51878;SHT31;37911;51.526;11.536;2023-04-25T13:03:20;12.88;38.45
51878;SHT31;37911;51.526;11.536;2023-04-25T13:06:24;13.10;39.66
51878;SHT31;37911;51.526;11.536;2023-04-25T13:09:30;12.95;38.70
51878;SHT31;37911;51.526;11.536;2023-04-25T13:12:34;12.95;38.85
51878;SHT31;37911;51.526;11.536;2023-04-25T13:15:37;13.02;39.46
51878;SHT31;37911;51.526;11.536;2023-04-25T13:18:42;13.02;37.88
51878;SHT31;37911;51.526;11.536;2023-04-25T13:21:46;12.92;37.53
51878;SHT31;37911;51.526;11.536;2023-04-25T13:24:55;12.72;39.97
51878;SHT31;37911;51.526;11.536;2023-04-25T13:27:59;12.25;39.04
51878;SHT31;37911;51.526;11.536;2023-04-25T13:31:02;12.04;39.51
51878;SHT31;37911;51.526;11.536;2023-04-25T13:34:06;11.90;40.90
51878;SHT31;37911;51.526;11.536;2023-04-25T13:37:11;11.66;39.71
51878;SHT31;37911;51.526;11.536;2023-04-25T13:40:18;11.76;38.74
51878;SHT31;37911;51.526;11.536;2023-04-25T13:43:24;11.94;40.10
51878;SHT31;37911;51.526;11.536;2023-04-25T13:46:28;11.94;38.99
51878;SHT31;37911;51.526;11.536;2023-04-25T13:49:32;12.11;39.26
51878;SHT31;37911;51.526;11.536;2023-04-25T13:52:35;12.07;38.11
51878;SHT31;37911;51.526;11.536;2023-04-25T13:55:44;12.00;37.51
51878;SHT31;37911;51.526;11.536;2023-04-25T13:58:48;11.98;38.19
51878;SHT31;37911;51.526;11.536;2023-04-25T14:01:53;11.76;37.65
51878;SHT31;37911;51.526;11.536;2023-04-25T14:04:57;11.62;38.75
51878;SHT31;37911;51.526;11.536;2023-04-25T14:08:01;11.59;39.70
51878;SHT31;37911;51.526;11.536;2023-04-25T14:11:07;11.73;39.77
51878;SHT31;37911;51.526;11.536;2023-04-25T14:14:11;11.79;39.22
51878;SHT31;37911;51.526;11.536;2023-04-25T14:17:16;11.70;38.73
51878;SHT31;37911;51.526;11.536;2023-04-25T14:20:21;11.77;40.15
51878;SHT31;37911;51.526;11.536;2023-04-25T14:23:25;11.70;39.23
51878;SHT31;37911;51.526;11.536;2023-04-25T14:26:31;11.52;40.19
51878;SHT31;37911;51.526;11.536;2023-04-25T14:29:35;11.62;41.17
51878;SHT31;37911;51.526;11.536;2023-04-25T14:32:38;11.69;41.16
51878;SHT31;37911;51.526;11.536;2023-04-25T14:35:42;11.76;41.53
51878;SHT31;37911;51.526;11.536;2023-04-25T14:38:46;11.81;41.15
51878;SHT31;37911;51.526;11.536;2023-04-25T14:41:53;11.83;41.86
51878;SHT31;37911;51.526;11.536;2023-04-25T14:44:56;11.67;43.95
51878;SHT31;37911;51.526;11.536;2023-04-25T14:48:00;11.52;46.13
51878;SHT31;37911;51.526;11.536;2023-04-25T14:51:04;11.44;45.75
51878;SHT31;37911;51.526;11.536;2023-04-25T14:54:10;11.36;45.49
51878;SHT31;37911;51.526;11.536;2023-04-25T14:57:17;11.29;45.36
51878;SHT31;37911;51.526;11.536;2023-04-25T15:00:21;11.14;45.30
51878;SHT31;37911;51.526;11.536;2023-04-25T15:03:25;11.18;45.46
51878;SHT31;37911;51.526;11.536;2023-04-25T15:06:29;11.16;46.35
51878;SHT31;37911;51.526;11.536;2023-04-25T15:09:33;11.09;44.75
51878;SHT31;37911;51.526;11.536;2023-04-25T15:12:39;11.15;45.20
51878;SHT31;37911;51.526;11.536;2023-04-25T15:15:43;11.16;45.12
51878;SHT31;37911;51.526;11.536;2023-04-25T15:18:51;11.28;45.53
51878;SHT31;37911;51.526;11.536;2023-04-25T15:21:55;11.22;45.63
51878;SHT31;37911;51.526;11.536;2023-04-25T15:25:01;11.15;45.60
51878;SHT31;37911;51.526;11.536;2023-04-25T15:28:07;11.07;45.88
51878;SHT31;37911;51.526;11.536;2023-04-25T15:31:10;10.99;48.28
51878;SHT31;37911;51.526;11.536;2023-04-25T15:34:14;11.11;45.76
51878;SHT31;37911;51.526;11.536;2023-04-25T15:37:18;11.36;45.10
51878;SHT31;37911;51.526;11.536;2023-04-25T15:40:22;11.77;44.94
51878;SHT31;37911;51.526;11.536;2023-04-25T15:43:28;12.01;44.49
51878;SHT31;37911;51.526;11.536;2023-04-25T15:46:32;11.95;44.12
51878;SHT31;37911;51.526;11.536;2023-04-25T15:49:35;11.62;42.63
51878;SHT31;37911;51.526;11.536;2023-04-25T15:52:39;11.23;43.39
51878;SHT31;37911;51.526;11.536;2023-04-25T15:55:43;11.19;44.49
51878;SHT31;37911;51.526;11.536;2023-04-25T15:58:49;11.09;44.38
51878;SHT31;37911;51.526;11.536;2023-04-25T16:01:56;11.07;44.67
51878;SHT31;37911;51.526;11.536;2023-04-25T16:05:00;10.99;45.47
51878;SHT31;37911;51.526;11.536;2023-04-25T16:08:04;11.02;46.06
51878;SHT31;37911;51.526;11.536;2023-04-25T16:11:07;11.02;46.75
51878;SHT31;37911;51.526;11.536;2023-04-25T16:14:17;11.02;47.21
51878;SHT31;37911;51.526;11.536;2023-04-25T16:17:20;11.04;47.17
51878;SHT31;37911;51.526;11.536;2023-04-25T16:20:24;11.02;47.67
51878;SHT31;37911;51.526;11.536;2023-04-25T16:23:28;11.09;46.92
51878;SHT31;37911;51.526;11.536;2023-04-25T16:26:31;11.04;47.13
51878;SHT31;37911;51.526;11.536;2023-04-25T16:29:39;11.11;47.09
51878;SHT31;37911;51.526;11.536;2023-04-25T16:32:44;11.12;49.03
51878;SHT31;37911;51.526;11.536;2023-04-25T16:35:47;11.08;47.44
51878;SHT31;37911;51.526;11.536;2023-04-25T16:38:52;11.02;48.02
51878;SHT31;37911;51.526;11.536;2023-04-25T16:41:57;11.01;48.28
51878;SHT31;37911;51.526;11.536;2023-04-25T16:45:04;11.09;47.81
51878;SHT31;37911;51.526;11.536;2023-04-25T16:48:08;11.15;48.20
51878;SHT31;37911;51.526;11.536;2023-04-25T16:51:12;11.15;48.24
51878;SHT31;37911;51.526;11.536;2023-04-25T16:54:16;11.02;48.75
51878;SHT31;37911;51.526;11.536;2023-04-25T16:57:19;10.81;50.08
51878;SHT31;37911;51.526;11.536;2023-04-25T17:00:25;10.69;50.24
51878;SHT31;37911;51.526;11.536;2023-04-25T17:03:29;10.64;50.69
51878;SHT31;37911;51.526;11.536;2023-04-25T17:06:33;10.61;50.86
51878;SHT31;37911;51.526;11.536;2023-04-25T17:09:37;10.61;49.84
51878;SHT31;37911;51.526;11.536;2023-04-25T17:12:41;10.64;50.37
51878;SHT31;37911;51.526;11.536;2023-04-25T17:15:49;10.61;51.29
51878;SHT31;37911;51.526;11.536;2023-04-25T17:18:52;10.64;50.52
51878;SHT31;37911;51.526;11.536;2023-04-25T17:21:57;10.63;50.36
51878;SHT31;37911;51.526;11.536;2023-04-25T17:25:01;10.63;50.98
51878;SHT31;37911;51.526;11.536;2023-04-25T17:28:05;10.61;50.85
51878;SHT31;37911;51.526;11.536;2023-04-25T17:31:11;10.54;50.60
51878;SHT31;37911;51.526;11.536;2023-04-25T17:34:15;10.48;50.75
51878;SHT31;37911;51.526;11.536;2023-04-25T17:37:19;10.37;51.03
51878;SHT31;37911;51.526;11.536;2023-04-25T17:40:22;10.27;50.81
51878;SHT31;37911;51.526;11.536;2023-04-25T17:43:26;10.09;51.27
51878;SHT31;37911;51.526;11.536;2023-04-25T17:46:32;9.93;51.54
51878;SHT31;37911;51.526;11.536;2023-04-25T17:49:37;9.82;52.47
51878;SHT31;37911;51.526;11.536;2023-04-25T17:52:41;9.69;53.74
51878;SHT31;37911;51.526;11.536;2023-04-25T17:55:47;9.52;55.14
51878;SHT31;37911;51.526;11.536;2023-04-25T17:58:51;9.38;56.86
51878;SHT31;37911;51.526;11.536;2023-04-25T18:01:59;9.17;58.16
51878;SHT31;37911;51.526;11.536;2023-04-25T18:05:03;9.12;59.00
51878;SHT31;37911;51.526;11.536;2023-04-25T18:08:09;9.08;59.20
51878;SHT31;37911;51.526;11.536;2023-04-25T18:11:13;9.14;58.22
51878;SHT31;37911;51.526;11.536;2023-04-25T18:14:16;9.08;57.83
51878;SHT31;37911;51.526;11.536;2023-04-25T18:17:23;9.01;57.92
51878;SHT31;37911;51.526;11.536;2023-04-25T18:20:27;8.78;61.36
51878;SHT31;37911;51.526;11.536;2023-04-25T18:23:31;8.68;64.02
51878;SHT31;37911;51.526;11.536;2023-04-25T18:26:35;8.52;65.95
51878;SHT31;37911;51.526;11.536;2023-04-25T18:29:38;8.52;66.61
51878;SHT31;37911;51.526;11.536;2023-04-25T18:32:48;8.46;67.07
51878;SHT31;37911;51.526;11.536;2023-04-25T18:35:51;8.54;66.31
51878;SHT31;37911;51.526;11.536;2023-04-25T18:38:58;8.54;66.23
51878;SHT31;37911;51.526;11.536;2023-04-25T18:42:05;8.43;66.14
51878;SHT31;37911;51.526;11.536;2023-04-25T18:45:10;8.37;64.55
51878;SHT31;37911;51.526;11.536;2023-04-25T18:48:16;8.21;65.21
51878;SHT31;37911;51.526;11.536;2023-04-25T18:51:23;8.02;64.78
51878;SHT31;37911;51.526;11.536;2023-04-25T18:54:29;7.98;65.07
51878;SHT31;37911;51.526;11.536;2023-04-25T18:57:32;8.02;65.80
51878;SHT31;37911;51.526;11.536;2023-04-25T19:00:36;7.92;65.80
51878;SHT31;37911;51.526;11.536;2023-04-25T19:03:42;7.83;66.54
51878;SHT31;37911;51.526;11.536;2023-04-25T19:06:54;7.75;66.88
51878;SHT31;37911;51.526;11.536;2023-04-25T19:09:57;7.75;66.96
51878;SHT31;37911;51.526;11.536;2023-04-25T19:13:01;7.77;67.70
51878;SHT31;37911;51.526;11.536;2023-04-25T19:16:06;7.86;66.77
51878;SHT31;37911;51.526;11.536;2023-04-25T19:19:12;7.86;66.83
51878;SHT31;37911;51.526;11.536;2023-04-25T19:22:16;7.83;67.37
51878;SHT31;37911;51.526;11.536;2023-04-25T19:25:20;7.88;66.28
51878;SHT31;37911;51.526;11.536;2023-04-25T19:28:24;7.78;66.66
51878;SHT31;37911;51.526;11.536;2023-04-25T19:31:29;7.81;66.54